sensor_id;sensor_type;location;lat;lon;timestamp;temperature;humidity
75799;DHT22;70933;44.692;37.776;2023-11-21T00:00:52;21.08;30.81
75799;DHT22;70933;44.692;37.776;2023-11-21T00:01:53;21.07;30.76
75799;DHT22;70933;44.692;37.776;2023-11-21T00:02:55;21.05;30.82
75799;DHT22;70933;44.692;37.776;2023-11-21T00:03:57;21.06;30.85
75799;DHT22;70933;44.692;37.776;2023-11-21T00:04:58;21.05;31.11
75799;DHT22;70933;44.692;37.776;2023-11-21T00:06:00;21.07;30.92
75799;DHT22;70933;44.692;37.776;2023-11-21T00:07:02;21.07;30.74
75799;DHT22;70933;44.692;37.776;2023-11-21T00:08:03;21.06;30.82
75799;DHT22;70933;44.692;37.776;2023-11-21T00:09:06;21.05;30.77
75799;DHT22;70933;44.692;37.776;2023-11-21T00:10:10;21.02;30.77
75799;DHT22;70933;44.692;37.776;2023-11-21T00:11:13;21.01;30.85
75799;DHT22;70933;44.692;37.776;2023-11-21T00:12:15;21.02;30.81
75799;DHT22;70933;44.692;37.776;2023-11-21T00:13:17;21.03;30.82
75799;DHT22;70933;44.692;37.776;2023-11-21T00:14:19;21.01;30.91
75799;DHT22;70933;44.692;37.776;2023-11-21T00:15:20;21.01;30.79
75799;DHT22;70933;44.692;37.776;2023-11-21T00:16:23;21.01;30.74
75799;DHT22;70933;44.692;37.776;2023-11-21T00:17:26;21.01;30.73
75799;DHT22;70933;44.692;37.776;2023-11-21T00:18:28;20.98;30.70
75799;DHT22;70933;44.692;37.776;2023-11-21T00:19:29;20.95;30.95
75799;DHT22;70933;44.692;37.776;2023-11-21T00:20:31;20.95;30.86
75799;DHT22;70933;44.692;37.776;2023-11-21T00:21:33;20.95;30.93
75799;DHT22;70933;44.692;37.776;2023-11-21T00:22:35;20.95;30.84
75799;DHT22;70933;44.692;37.776;2023-11-21T00:23:37;20.98;30.90
75799;DHT22;70933;44.692;37.776;2023-11-21T00:24:38;20.98;30.90
75799;DHT22;70933;44.692;37.776;2023-11-21T00:25:40;20.96;30.80
75799;DHT22;70933;44.692;37.776;2023-11-21T00:26:41;20.98;30.88
75799;DHT22;70933;44.692;37.776;2023-11-21T00:27:43;20.96;30.71
75799;DHT22;70933;44.692;37.776;2023-11-21T00:28:46;20.96;30.93
75799;DHT22;70933;44.692;37.776;2023-11-21T00:29:48;20.98;31.04
75799;DHT22;70933;44.692;37.776;2023-11-21T00:30:49;20.95;30.77
75799;DHT22;70933;44.692;37.776;2023-11-21T00:31:51;20.95;30.80
75799;DHT22;70933;44.692;37.776;2023-11-21T00:32:52;20.95;30.83
75799;DHT22;70933;44.692;37.776;2023-11-21T00:33:54;20.94;30.77
75799;DHT22;70933;44.692;37.776;2023-11-21T00:34:56;20.94;30.87
75799;DHT22;70933;44.692;37.776;2023-11-21T00:35:58;20.95;30.74
75799;DHT22;70933;44.692;37.776;2023-11-21T00:36:59;20.93;30.89
75799;DHT22;70933;44.692;37.776;2023-11-21T00:38:01;20.94;30.95
75799;DHT22;70933;44.692;37.776;2023-11-21T00:39:03;20.95;30.89
75799;DHT22;70933;44.692;37.776;2023-11-21T00:40:05;20.92;30.84
75799;DHT22;70933;44.692;37.776;2023-11-21T00:41:09;20.92;30.98
75799;DHT22;70933;44.692;37.776;2023-11-21T00:42:11;20.93;31.12
75799;DHT22;70933;44.692;37.776;2023-11-21T00:43:12;20.93;31.04
75799;DHT22;70933;44.692;37.776;2023-11-21T00:44:15;20.98;31.00
75799;DHT22;70933;44.692;37.776;2023-11-21T00:45:17;20.96;30.92
75799;DHT22;70933;44.692;37.776;2023-11-21T00:46:18;20.99;31.03
75799;DHT22;70933;44.692;37.776;2023-11-21T00:47:20;21.01;30.93
75799;DHT22;70933;44.692;37.776;2023-11-21T00:48:21;20.99;30.86
75799;DHT22;70933;44.692;37.776;2023-11-21T00:49:23;20.98;30.87
75799;DHT22;70933;44.692;37.776;2023-11-21T00:50:24;20.98;30.97
75799;DHT22;70933;44.692;37.776;2023-11-21T00:51:26;20.96;30.88
75799;DHT22;70933;44.692;37.776;2023-11-21T00:52:27;20.94;30.91
75799;DHT22;70933;44.692;37.776;2023-11-21T00:53:29;20.93;31.03
75799;DHT22;70933;44.692;37.776;2023-11-21T00:54:31;20.95;31.08
75799;DHT22;70933;44.692;37.776;2023-11-21T00:55:33;20.96;30.99
75799;DHT22;70933;44.692;37.776;2023-11-21T00:56:36;20.98;30.90
75799;DHT22;70933;44.692;37.776;2023-11-21T00:57:38;20.96;30.93
75799;DHT22;70933;44.692;37.776;2023-11-21T00:58:40;20.94;30.91
75799;DHT22;70933;44.692;37.776;2023-11-21T00:59:48;20.93;30.96
75799;DHT22;70933;44.692;37.776;2023-11-21T01:00:49;20.94;31.07
75799;DHT22;70933;44.692;37.776;2023-11-21T01:01:51;20.95;31.02
75799;DHT22;70933;44.692;37.776;2023-11-21T01:02:53;20.94;30.94
75799;DHT22;70933;44.692;37.776;2023-11-21T01:03:54;20.93;30.97
75799;DHT22;70933;44.692;37.776;2023-11-21T01:04:55;20.92;31.02
75799;DHT22;70933;44.692;37.776;2023-11-21T01:05:57;20.92;31.12
75799;DHT22;70933;44.692;37.776;2023-11-21T01:06:58;20.91;31.03
75799;DHT22;70933;44.692;37.776;2023-11-21T01:08:00;20.91;31.10
75799;DHT22;70933;44.692;37.776;2023-11-21T01:09:02;20.89;31.05
75799;DHT22;70933;44.692;37.776;2023-11-21T01:10:09;20.91;31.24
75799;DHT22;70933;44.692;37.776;2023-11-21T01:11:11;20.92;31.22
75799;DHT22;70933;44.692;37.776;2023-11-21T01:12:16;20.93;31.16
75799;DHT22;70933;44.692;37.776;2023-11-21T01:13:18;20.94;31.19
75799;DHT22;70933;44.692;37.776;2023-11-21T01:14:20;20.93;31.16
75799;DHT22;70933;44.692;37.776;2023-11-21T01:15:21;20.92;31.05
75799;DHT22;70933;44.692;37.776;2023-11-21T01:16:23;20.90;31.26
75799;DHT22;70933;44.692;37.776;2023-11-21T01:17:26;20.91;31.31
75799;DHT22;70933;44.692;37.776;2023-11-21T01:18:28;20.92;31.29
75799;DHT22;70933;44.692;37.776;2023-11-21T01:19:30;20.94;31.21
75799;DHT22;70933;44.692;37.776;2023-11-21T01:20:32;20.93;31.15
75799;DHT22;70933;44.692;37.776;2023-11-21T01:21:33;20.92;31.31
75799;DHT22;70933;44.692;37.776;2023-11-21T01:22:35;20.95;31.28
75799;DHT22;70933;44.692;37.776;2023-11-21T01:23:36;20.96;31.37
75799;DHT22;70933;44.692;37.776;2023-11-21T01:24:38;20.95;31.18
75799;DHT22;70933;44.692;37.776;2023-11-21T01:25:39;20.96;31.34
75799;DHT22;70933;44.692;37.776;2023-11-21T01:26:41;20.96;31.30
75799;DHT22;70933;44.692;37.776;2023-11-21T01:27:43;20.96;31.25
75799;DHT22;70933;44.692;37.776;2023-11-21T01:28:44;20.98;31.23
75799;DHT22;70933;44.692;37.776;2023-11-21T01:29:46;20.99;31.22
75799;DHT22;70933;44.692;37.776;2023-11-21T01:30:48;20.99;31.28
75799;DHT22;70933;44.692;37.776;2023-11-21T01:31:50;20.98;31.16
75799;DHT22;70933;44.692;37.776;2023-11-21T01:32:53;20.96;31.30
75799;DHT22;70933;44.692;37.776;2023-11-21T01:33:55;20.98;31.34
75799;DHT22;70933;44.692;37.776;2023-11-21T01:34:56;20.99;31.44
75799;DHT22;70933;44.692;37.776;2023-11-21T01:35:57;21.01;31.39
75799;DHT22;70933;44.692;37.776;2023-11-21T01:36:59;21.04;31.25
75799;DHT22;70933;44.692;37.776;2023-11-21T01:38:01;21.03;31.23
75799;DHT22;70933;44.692;37.776;2023-11-21T01:39:02;21.04;31.14
75799;DHT22;70933;44.692;37.776;2023-11-21T01:40:09;21.03;31.13
75799;DHT22;70933;44.692;37.776;2023-11-21T01:41:14;21.01;31.14
75799;DHT22;70933;44.692;37.776;2023-11-21T01:42:16;21.02;31.16
75799;DHT22;70933;44.692;37.776;2023-11-21T01:43:17;21.00;31.12
75799;DHT22;70933;44.692;37.776;2023-11-21T01:44:19;20.99;31.12
75799;DHT22;70933;44.692;37.776;2023-11-21T01:45:21;20.98;31.18
75799;DHT22;70933;44.692;37.776;2023-11-21T01:46:26;21.00;31.36
75799;DHT22;70933;44.692;37.776;2023-11-21T01:47:28;21.00;31.03
75799;DHT22;70933;44.692;37.776;2023-11-21T01:48:31;20.99;31.19
75799;DHT22;70933;44.692;37.776;2023-11-21T01:49:33;20.99;31.08
75799;DHT22;70933;44.692;37.776;2023-11-21T01:50:36;21.00;31.27
75799;DHT22;70933;44.692;37.776;2023-11-21T01:51:37;20.99;31.05
75799;DHT22;70933;44.692;37.776;2023-11-21T01:52:39;21.00;31.28
75799;DHT22;70933;44.692;37.776;2023-11-21T01:53:42;21.00;31.01
75799;DHT22;70933;44.692;37.776;2023-11-21T01:54:44;20.99;31.05
75799;DHT22;70933;44.692;37.776;2023-11-21T01:55:46;20.98;31.08
75799;DHT22;70933;44.692;37.776;2023-11-21T01:56:48;20.96;31.25
75799;DHT22;70933;44.692;37.776;2023-11-21T01:57:50;20.99;31.35
75799;DHT22;70933;44.692;37.776;2023-11-21T01:58:52;21.00;31.16
75799;DHT22;70933;44.692;37.776;2023-11-21T01:59:54;21.02;31.03
75799;DHT22;70933;44.692;37.776;2023-11-21T02:00:56;21.03;31.14
75799;DHT22;70933;44.692;37.776;2023-11-21T02:01:57;21.03;31.03
75799;DHT22;70933;44.692;37.776;2023-11-21T02:03:00;21.03;30.99
75799;DHT22;70933;44.692;37.776;2023-11-21T02:04:01;21.05;30.87
75799;DHT22;70933;44.692;37.776;2023-11-21T02:05:03;21.04;30.99
75799;DHT22;70933;44.692;37.776;2023-11-21T02:06:05;21.04;30.98
75799;DHT22;70933;44.692;37.776;2023-11-21T02:07:07;21.03;30.80
75799;DHT22;70933;44.692;37.776;2023-11-21T02:08:08;21.02;30.81
75799;DHT22;70933;44.692;37.776;2023-11-21T02:09:11;21.00;31.00
75799;DHT22;70933;44.692;37.776;2023-11-21T02:10:16;21.00;31.21
75799;DHT22;70933;44.692;37.776;2023-11-21T02:11:21;21.01;31.05
75799;DHT22;70933;44.692;37.776;2023-11-21T02:12:22;21.02;30.96
75799;DHT22;70933;44.692;37.776;2023-11-21T02:13:24;21.02;31.18
75799;DHT22;70933;44.692;37.776;2023-11-21T02:14:26;21.01;30.96
75799;DHT22;70933;44.692;37.776;2023-11-21T02:15:30;21.02;31.09
75799;DHT22;70933;44.692;37.776;2023-11-21T02:16:32;21.03;31.17
75799;DHT22;70933;44.692;37.776;2023-11-21T02:17:35;21.04;30.96
75799;DHT22;70933;44.692;37.776;2023-11-21T02:18:37;21.04;30.95
75799;DHT22;70933;44.692;37.776;2023-11-21T02:19:39;21.03;31.06
75799;DHT22;70933;44.692;37.776;2023-11-21T02:20:41;21.03;31.04
75799;DHT22;70933;44.692;37.776;2023-11-21T02:21:44;21.02;31.04
75799;DHT22;70933;44.692;37.776;2023-11-21T02:22:50;21.01;31.07
75799;DHT22;70933;44.692;37.776;2023-11-21T02:23:59;21.01;31.06
75799;DHT22;70933;44.692;37.776;2023-11-21T02:25:01;21.02;31.09
75799;DHT22;70933;44.692;37.776;2023-11-21T02:26:05;21.02;30.96
75799;DHT22;70933;44.692;37.776;2023-11-21T02:27:07;21.03;31.01
75799;DHT22;70933;44.692;37.776;2023-11-21T02:28:08;21.02;31.00
75799;DHT22;70933;44.692;37.776;2023-11-21T02:29:10;21.02;31.11
75799;DHT22;70933;44.692;37.776;2023-11-21T02:30:15;21.02;31.06
75799;DHT22;70933;44.692;37.776;2023-11-21T02:31:17;21.01;30.98
75799;DHT22;70933;44.692;37.776;2023-11-21T02:32:20;20.98;30.99
75799;DHT22;70933;44.692;37.776;2023-11-21T02:33:23;20.99;30.99
75799;DHT22;70933;44.692;37.776;2023-11-21T02:34:25;20.96;31.13
75799;DHT22;70933;44.692;37.776;2023-11-21T02:35:28;20.95;31.17
75799;DHT22;70933;44.692;37.776;2023-11-21T02:36:33;20.94;31.18
75799;DHT22;70933;44.692;37.776;2023-11-21T02:37:35;20.93;31.15
75799;DHT22;70933;44.692;37.776;2023-11-21T02:38:37;20.93;31.20
75799;DHT22;70933;44.692;37.776;2023-11-21T02:39:39;20.92;31.19
75799;DHT22;70933;44.692;37.776;2023-11-21T02:40:40;20.91;31.17
75799;DHT22;70933;44.692;37.776;2023-11-21T02:41:42;20.90;31.25
75799;DHT22;70933;44.692;37.776;2023-11-21T02:42:44;20.89;31.19
75799;DHT22;70933;44.692;37.776;2023-11-21T02:43:46;20.88;31.28
75799;DHT22;70933;44.692;37.776;2023-11-21T02:44:47;20.90;31.32
75799;DHT22;70933;44.692;37.776;2023-11-21T02:45:49;20.89;31.28
75799;DHT22;70933;44.692;37.776;2023-11-21T02:46:51;20.88;31.34
75799;DHT22;70933;44.692;37.776;2023-11-21T02:47:52;20.90;31.37
75799;DHT22;70933;44.692;37.776;2023-11-21T02:48:58;20.89;31.23
75799;DHT22;70933;44.692;37.776;2023-11-21T02:50:00;20.89;31.28
75799;DHT22;70933;44.692;37.776;2023-11-21T02:51:02;20.88;31.20
75799;DHT22;70933;44.692;37.776;2023-11-21T02:52:04;20.88;31.28
75799;DHT22;70933;44.692;37.776;2023-11-21T02:53:06;20.88;31.28
75799;DHT22;70933;44.692;37.776;2023-11-21T02:54:08;20.89;31.25
75799;DHT22;70933;44.692;37.776;2023-11-21T02:55:10;20.89;31.27
75799;DHT22;70933;44.692;37.776;2023-11-21T02:56:12;20.89;31.27
75799;DHT22;70933;44.692;37.776;2023-11-21T02:57:14;20.90;31.25
75799;DHT22;70933;44.692;37.776;2023-11-21T02:58:16;20.88;31.35
75799;DHT22;70933;44.692;37.776;2023-11-21T02:59:18;20.90;31.38
75799;DHT22;70933;44.692;37.776;2023-11-21T03:00:20;20.89;31.48
75799;DHT22;70933;44.692;37.776;2023-11-21T03:01:26;20.89;31.46
75799;DHT22;70933;44.692;37.776;2023-11-21T03:02:28;20.93;31.64
75799;DHT22;70933;44.692;37.776;2023-11-21T03:03:30;20.94;31.46
75799;DHT22;70933;44.692;37.776;2023-11-21T03:04:32;20.94;31.28
75799;DHT22;70933;44.692;37.776;2023-11-21T03:05:34;20.92;31.22
75799;DHT22;70933;44.692;37.776;2023-11-21T03:06:36;20.91;31.32
75799;DHT22;70933;44.692;37.776;2023-11-21T03:07:39;20.91;31.26
75799;DHT22;70933;44.692;37.776;2023-11-21T03:08:41;20.89;31.31
75799;DHT22;70933;44.692;37.776;2023-11-21T03:09:43;20.90;31.30
75799;DHT22;70933;44.692;37.776;2023-11-21T03:10:45;20.90;31.41
75799;DHT22;70933;44.692;37.776;2023-11-21T03:11:47;20.92;31.23
75799;DHT22;70933;44.692;37.776;2023-11-21T03:12:48;20.89;31.34
75799;DHT22;70933;44.692;37.776;2023-11-21T03:13:50;20.87;31.23
75799;DHT22;70933;44.692;37.776;2023-11-21T03:14:52;20.87;31.31
75799;DHT22;70933;44.692;37.776;2023-11-21T03:15:56;20.87;31.48
75799;DHT22;70933;44.692;37.776;2023-11-21T03:16:58;20.89;31.29
75799;DHT22;70933;44.692;37.776;2023-11-21T03:17:59;20.88;31.28
75799;DHT22;70933;44.692;37.776;2023-11-21T03:19:01;20.87;31.39
75799;DHT22;70933;44.692;37.776;2023-11-21T03:20:04;20.88;31.53
75799;DHT22;70933;44.692;37.776;2023-11-21T03:21:06;20.91;31.47
75799;DHT22;70933;44.692;37.776;2023-11-21T03:22:11;20.91;31.61
75799;DHT22;70933;44.692;37.776;2023-11-21T03:23:14;20.93;31.52
75799;DHT22;70933;44.692;37.776;2023-11-21T03:24:16;20.94;31.29
75799;DHT22;70933;44.692;37.776;2023-11-21T03:25:19;20.94;31.34
75799;DHT22;70933;44.692;37.776;2023-11-21T03:26:22;20.94;31.21
75799;DHT22;70933;44.692;37.776;2023-11-21T03:27:23;20.94;31.28
75799;DHT22;70933;44.692;37.776;2023-11-21T03:28:26;20.94;31.33
75799;DHT22;70933;44.692;37.776;2023-11-21T03:29:29;20.95;31.49
75799;DHT22;70933;44.692;37.776;2023-11-21T03:30:30;20.94;31.38
75799;DHT22;70933;44.692;37.776;2023-11-21T03:31:33;20.93;31.36
75799;DHT22;70933;44.692;37.776;2023-11-21T03:32:34;20.95;31.23
75799;DHT22;70933;44.692;37.776;2023-11-21T03:33:36;20.93;31.28
75799;DHT22;70933;44.692;37.776;2023-11-21T03:34:54;20.93;31.38
75799;DHT22;70933;44.692;37.776;2023-11-21T03:35:57;20.91;31.32
75799;DHT22;70933;44.692;37.776;2023-11-21T03:36:58;20.90;31.25
75799;DHT22;70933;44.692;37.776;2023-11-21T03:38:00;20.89;31.35
75799;DHT22;70933;44.692;37.776;2023-11-21T03:39:04;20.89;31.31
75799;DHT22;70933;44.692;37.776;2023-11-21T03:40:07;20.88;31.41
75799;DHT22;70933;44.692;37.776;2023-11-21T03:41:10;20.87;31.32
75799;DHT22;70933;44.692;37.776;2023-11-21T03:42:12;20.88;31.42
75799;DHT22;70933;44.692;37.776;2023-11-21T03:43:14;20.87;31.45
75799;DHT22;70933;44.692;37.776;2023-11-21T03:44:16;20.87;31.49
75799;DHT22;70933;44.692;37.776;2023-11-21T03:45:20;20.86;31.32
75799;DHT22;70933;44.692;37.776;2023-11-21T03:46:23;20.85;31.35
75799;DHT22;70933;44.692;37.776;2023-11-21T03:47:27;20.84;31.36
75799;DHT22;70933;44.692;37.776;2023-11-21T03:48:29;20.80;31.49
75799;DHT22;70933;44.692;37.776;2023-11-21T03:49:31;20.81;31.45
75799;DHT22;70933;44.692;37.776;2023-11-21T03:50:32;20.81;31.50
75799;DHT22;70933;44.692;37.776;2023-11-21T03:51:34;20.83;31.56
75799;DHT22;70933;44.692;37.776;2023-11-21T03:52:37;20.81;31.45
75799;DHT22;70933;44.692;37.776;2023-11-21T03:53:39;20.80;31.41
75799;DHT22;70933;44.692;37.776;2023-11-21T03:54:44;20.80;31.42
75799;DHT22;70933;44.692;37.776;2023-11-21T03:55:45;20.80;31.33
75799;DHT22;70933;44.692;37.776;2023-11-21T03:56:47;20.78;31.44
75799;DHT22;70933;44.692;37.776;2023-11-21T03:57:51;20.79;31.49
75799;DHT22;70933;44.692;37.776;2023-11-21T03:58:54;20.79;31.51
75799;DHT22;70933;44.692;37.776;2023-11-21T03:59:56;20.79;31.48
75799;DHT22;70933;44.692;37.776;2023-11-21T04:00:57;20.78;31.54
75799;DHT22;70933;44.692;37.776;2023-11-21T04:01:59;20.78;31.54
75799;DHT22;70933;44.692;37.776;2023-11-21T04:03:04;20.78;31.56
75799;DHT22;70933;44.692;37.776;2023-11-21T04:04:06;20.80;31.43
75799;DHT22;70933;44.692;37.776;2023-11-21T04:05:07;20.80;31.51
75799;DHT22;70933;44.692;37.776;2023-11-21T04:06:10;20.80;31.61
75799;DHT22;70933;44.692;37.776;2023-11-21T04:07:11;20.79;31.54
75799;DHT22;70933;44.692;37.776;2023-11-21T04:08:14;20.80;31.71
75799;DHT22;70933;44.692;37.776;2023-11-21T04:09:16;20.83;31.51
75799;DHT22;70933;44.692;37.776;2023-11-21T04:10:18;20.77;31.48
75799;DHT22;70933;44.692;37.776;2023-11-21T04:11:19;20.79;31.54
75799;DHT22;70933;44.692;37.776;2023-11-21T04:12:21;20.78;31.47
75799;DHT22;70933;44.692;37.776;2023-11-21T04:13:22;20.77;31.57
75799;DHT22;70933;44.692;37.776;2023-11-21T04:14:24;20.77;31.53
75799;DHT22;70933;44.692;37.776;2023-11-21T04:15:25;20.76;31.44
75799;DHT22;70933;44.692;37.776;2023-11-21T04:16:27;20.77;31.46
75799;DHT22;70933;44.692;37.776;2023-11-21T04:17:28;20.77;31.50
75799;DHT22;70933;44.692;37.776;2023-11-21T04:18:30;20.74;31.57
75799;DHT22;70933;44.692;37.776;2023-11-21T04:19:31;20.73;31.62
75799;DHT22;70933;44.692;37.776;2023-11-21T04:20:33;20.75;31.70
75799;DHT22;70933;44.692;37.776;2023-11-21T04:21:35;20.75;31.54
75799;DHT22;70933;44.692;37.776;2023-11-21T04:22:39;20.76;31.49
75799;DHT22;70933;44.692;37.776;2023-11-21T04:23:42;20.76;31.55
75799;DHT22;70933;44.692;37.776;2023-11-21T04:24:43;20.77;31.61
75799;DHT22;70933;44.692;37.776;2023-11-21T04:25:45;20.77;31.54
75799;DHT22;70933;44.692;37.776;2023-11-21T04:26:46;20.80;31.69
75799;DHT22;70933;44.692;37.776;2023-11-21T04:27:48;20.83;31.77
75799;DHT22;70933;44.692;37.776;2023-11-21T04:28:50;20.85;31.67
75799;DHT22;70933;44.692;37.776;2023-11-21T04:29:51;20.87;31.40
75799;DHT22;70933;44.692;37.776;2023-11-21T04:30:53;20.86;31.38
75799;DHT22;70933;44.692;37.776;2023-11-21T04:31:54;20.87;31.28
75799;DHT22;70933;44.692;37.776;2023-11-21T04:32:56;20.85;31.37
75799;DHT22;70933;44.692;37.776;2023-11-21T04:33:58;20.87;31.44
75799;DHT22;70933;44.692;37.776;2023-11-21T04:34:59;20.88;31.27
75799;DHT22;70933;44.692;37.776;2023-11-21T04:36:01;20.87;31.34
75799;DHT22;70933;44.692;37.776;2023-11-21T04:37:03;20.88;31.41
75799;DHT22;70933;44.692;37.776;2023-11-21T04:38:07;20.89;31.35
75799;DHT22;70933;44.692;37.776;2023-11-21T04:39:09;20.90;31.34
75799;DHT22;70933;44.692;37.776;2023-11-21T04:40:11;20.90;31.25
75799;DHT22;70933;44.692;37.776;2023-11-21T04:41:13;20.92;31.30
75799;DHT22;70933;44.692;37.776;2023-11-21T04:42:14;20.93;31.20
75799;DHT22;70933;44.692;37.776;2023-11-21T04:43:15;20.93;31.38
75799;DHT22;70933;44.692;37.776;2023-11-21T04:44:17;20.94;31.28
75799;DHT22;70933;44.692;37.776;2023-11-21T04:45:18;20.95;31.35
75799;DHT22;70933;44.692;37.776;2023-11-21T04:46:20;20.98;31.31
75799;DHT22;70933;44.692;37.776;2023-11-21T04:47:23;21.00;31.18
75799;DHT22;70933;44.692;37.776;2023-11-21T04:48:24;20.99;31.25
75799;DHT22;70933;44.692;37.776;2023-11-21T04:49:26;21.00;31.48
75799;DHT22;70933;44.692;37.776;2023-11-21T04:50:28;21.02;31.41
75799;DHT22;70933;44.692;37.776;2023-11-21T04:51:29;21.04;31.12
75799;DHT22;70933;44.692;37.776;2023-11-21T04:52:31;21.04;31.26
75799;DHT22;70933;44.692;37.776;2023-11-21T04:53:33;21.07;31.32
75799;DHT22;70933;44.692;37.776;2023-11-21T04:54:36;21.09;31.25
75799;DHT22;70933;44.692;37.776;2023-11-21T04:55:37;21.08;31.16
75799;DHT22;70933;44.692;37.776;2023-11-21T04:56:40;21.09;31.29
75799;DHT22;70933;44.692;37.776;2023-11-21T04:57:41;21.13;31.27
75799;DHT22;70933;44.692;37.776;2023-11-21T04:58:43;21.13;31.04
75799;DHT22;70933;44.692;37.776;2023-11-21T04:59:45;21.15;31.04
75799;DHT22;70933;44.692;37.776;2023-11-21T05:00:46;21.16;31.12
75799;DHT22;70933;44.692;37.776;2023-11-21T05:01:48;21.17;31.19
75799;DHT22;70933;44.692;37.776;2023-11-21T05:02:49;21.19;30.94
75799;DHT22;70933;44.692;37.776;2023-11-21T05:03:54;21.18;30.94
75799;DHT22;70933;44.692;37.776;2023-11-21T05:04:58;21.18;31.22
75799;DHT22;70933;44.692;37.776;2023-11-21T05:06:00;21.18;31.03
75799;DHT22;70933;44.692;37.776;2023-11-21T05:07:01;21.20;31.09
75799;DHT22;70933;44.692;37.776;2023-11-21T05:08:03;21.21;31.19
75799;DHT22;70933;44.692;37.776;2023-11-21T05:09:05;21.22;31.12
75799;DHT22;70933;44.692;37.776;2023-11-21T05:10:08;21.22;31.25
75799;DHT22;70933;44.692;37.776;2023-11-21T05:11:22;21.23;31.37
75799;DHT22;70933;44.692;37.776;2023-11-21T05:12:24;21.27;31.62
75799;DHT22;70933;44.692;37.776;2023-11-21T05:13:26;21.28;31.62
75799;DHT22;70933;44.692;37.776;2023-11-21T05:14:28;21.27;31.56
75799;DHT22;70933;44.692;37.776;2023-11-21T05:15:30;21.27;31.53
75799;DHT22;70933;44.692;37.776;2023-11-21T05:16:31;21.27;31.57
75799;DHT22;70933;44.692;37.776;2023-11-21T05:17:33;21.27;31.70
75799;DHT22;70933;44.692;37.776;2023-11-21T05:18:37;21.28;31.70
75799;DHT22;70933;44.692;37.776;2023-11-21T05:19:38;21.30;31.62
75799;DHT22;70933;44.692;37.776;2023-11-21T05:20:41;21.30;31.64
75799;DHT22;70933;44.692;37.776;2023-11-21T05:21:43;21.30;31.72
75799;DHT22;70933;44.692;37.776;2023-11-21T05:22:45;21.31;31.57
75799;DHT22;70933;44.692;37.776;2023-11-21T05:23:46;21.32;31.61
75799;DHT22;70933;44.692;37.776;2023-11-21T05:24:48;21.33;31.70
75799;DHT22;70933;44.692;37.776;2023-11-21T05:25:49;21.34;31.73
75799;DHT22;70933;44.692;37.776;2023-11-21T05:26:51;21.36;31.65
75799;DHT22;70933;44.692;37.776;2023-11-21T05:27:52;21.36;31.58
75799;DHT22;70933;44.692;37.776;2023-11-21T05:28:55;21.36;31.48
75799;DHT22;70933;44.692;37.776;2023-11-21T05:29:57;21.36;31.58
75799;DHT22;70933;44.692;37.776;2023-11-21T05:30:58;21.36;31.45
75799;DHT22;70933;44.692;37.776;2023-11-21T05:32:00;21.37;31.50
75799;DHT22;70933;44.692;37.776;2023-11-21T05:33:02;21.36;31.45
75799;DHT22;70933;44.692;37.776;2023-11-21T05:34:04;21.37;31.54
75799;DHT22;70933;44.692;37.776;2023-11-21T05:35:06;21.36;31.74
75799;DHT22;70933;44.692;37.776;2023-11-21T05:36:13;21.36;31.61
75799;DHT22;70933;44.692;37.776;2023-11-21T05:37:15;21.37;31.53
75799;DHT22;70933;44.692;37.776;2023-11-21T05:38:16;21.37;31.71
75799;DHT22;70933;44.692;37.776;2023-11-21T05:39:18;21.39;31.72
75799;DHT22;70933;44.692;37.776;2023-11-21T05:40:20;21.40;31.65
75799;DHT22;70933;44.692;37.776;2023-11-21T05:41:23;21.42;31.58
75799;DHT22;70933;44.692;37.776;2023-11-21T05:42:25;21.42;31.48
75799;DHT22;70933;44.692;37.776;2023-11-21T05:43:26;21.42;31.55
75799;DHT22;70933;44.692;37.776;2023-11-21T05:44:30;21.43;31.59
75799;DHT22;70933;44.692;37.776;2023-11-21T05:45:31;21.45;31.58
75799;DHT22;70933;44.692;37.776;2023-11-21T05:46:33;21.45;31.54
75799;DHT22;70933;44.692;37.776;2023-11-21T05:47:37;21.46;31.49
75799;DHT22;70933;44.692;37.776;2023-11-21T05:48:40;21.47;31.67
75799;DHT22;70933;44.692;37.776;2023-11-21T05:49:42;21.48;31.63
75799;DHT22;70933;44.692;37.776;2023-11-21T05:50:43;21.50;31.66
75799;DHT22;70933;44.692;37.776;2023-11-21T05:51:45;21.49;31.43
75799;DHT22;70933;44.692;37.776;2023-11-21T05:52:47;21.49;31.61
75799;DHT22;70933;44.692;37.776;2023-11-21T05:53:49;21.49;31.65
75799;DHT22;70933;44.692;37.776;2023-11-21T05:54:51;21.49;31.63
75799;DHT22;70933;44.692;37.776;2023-11-21T05:55:52;21.50;31.73
75799;DHT22;70933;44.692;37.776;2023-11-21T05:56:54;21.50;31.64
75799;DHT22;70933;44.692;37.776;2023-11-21T05:57:56;21.51;31.54
75799;DHT22;70933;44.692;37.776;2023-11-21T05:58:57;21.51;31.30
75799;DHT22;70933;44.692;37.776;2023-11-21T05:59:59;21.51;31.61
75799;DHT22;70933;44.692;37.776;2023-11-21T06:01:00;21.52;31.51
75799;DHT22;70933;44.692;37.776;2023-11-21T06:02:02;21.53;31.73
75799;DHT22;70933;44.692;37.776;2023-11-21T06:03:04;21.54;31.68
75799;DHT22;70933;44.692;37.776;2023-11-21T06:04:07;21.54;31.65
75799;DHT22;70933;44.692;37.776;2023-11-21T06:05:11;21.55;31.69
75799;DHT22;70933;44.692;37.776;2023-11-21T06:06:13;21.58;31.77
75799;DHT22;70933;44.692;37.776;2023-11-21T06:07:14;21.58;31.67
75799;DHT22;70933;44.692;37.776;2023-11-21T06:08:16;21.61;31.71
75799;DHT22;70933;44.692;37.776;2023-11-21T06:09:18;21.62;31.64
75799;DHT22;70933;44.692;37.776;2023-11-21T06:10:20;21.64;31.53
75799;DHT22;70933;44.692;37.776;2023-11-21T06:11:22;21.65;31.54
75799;DHT22;70933;44.692;37.776;2023-11-21T06:12:24;21.67;31.76
75799;DHT22;70933;44.692;37.776;2023-11-21T06:13:26;21.67;31.80
75799;DHT22;70933;44.692;37.776;2023-11-21T06:14:29;21.68;32.10
75799;DHT22;70933;44.692;37.776;2023-11-21T06:15:30;21.69;32.03
75799;DHT22;70933;44.692;37.776;2023-11-21T06:16:32;21.69;31.90
75799;DHT22;70933;44.692;37.776;2023-11-21T06:17:34;21.72;31.99
75799;DHT22;70933;44.692;37.776;2023-11-21T06:18:37;21.70;32.17
75799;DHT22;70933;44.692;37.776;2023-11-21T06:19:39;21.72;32.13
75799;DHT22;70933;44.692;37.776;2023-11-21T06:20:41;21.73;31.93
75799;DHT22;70933;44.692;37.776;2023-11-21T06:21:45;21.73;32.00
75799;DHT22;70933;44.692;37.776;2023-11-21T06:22:48;21.74;32.02
75799;DHT22;70933;44.692;37.776;2023-11-21T06:23:51;21.74;31.69
75799;DHT22;70933;44.692;37.776;2023-11-21T06:24:54;21.73;31.97
75799;DHT22;70933;44.692;37.776;2023-11-21T06:25:55;21.73;32.35
75799;DHT22;70933;44.692;37.776;2023-11-21T06:26:58;21.74;32.33